Ana Sayfa
METAR-TAF:

METAR-TAF

Havaalanları :

Debrecen, Macaristan

Enlem: 47-29N, Boylam: 021-36E, yükseklik: 108 m

Güncel hava durumu gözlemi

Rapor saat 07:15 UTC de 32 dakika önce yapıldı.
Rüzgar doğudan 6 kt
Sıcaklık 11°C
Nem 47%
Basınç 1016 hPa
Görüş mesafesi: 8000 m

METAR: LHDC 280715Z AUTO 09006KT 8000 NCD 11/00 Q1016

Saat: 08:47 (07:47 UTC)

Tahmin

Rapor saat 11:15 UTC de 20 saat ve 32 dakika önce yapıldı.
Ayın 27'si saat 12 UTC'den ayın 27'si saat 21 UTC'ye kadar geçerli Tahmin
Rüzgar doğu/güneydoğudan 12 kt
Görüş mesafesi: 5000 m
Toz Pusu
Olasılık 40%
ayın 27'si saat 14 UTC'den ayın 27'si saat 19 UTC'ye kadar
Görüş mesafesi 10 km veya daha fazla
1500 m altında bulut yok ve kümülonimbus yok
Dönüşüyor
ayın 27'si saat 17 UTC'den ayın 27'si saat 19 UTC'ye kadar
Rüzgar değişken yönden 2 kt

TAF: LHDC 271115Z 2712/2721 11012KT 5000 HZ NSC PROB40 2714/2719 CAVOK BECMG 2717/2719 VRB02KT

4.000'den fazla havaalanı için hava durumu gözlemleri ve tahminleri (METAR ve TAF raporları).

Kullanılabilir istasyonlar harita üzerinde sarı ve kırmızı noktalarla gösterilir.

İstasyonun adını görmek için fareyi noktanın üzerinde gezdirin.

Sonrasında hava gözlem ve tahminlerini görmek için tıklayın.

Haritayı değiştirmek için: yaklaştırmak için siyah artı işaretli yeşil düğmeye ve uzaklaştırmak için de eksi işaretli düğmeye hızla tıklayın; bitişik haritalar için yeşil okları kullanın.


METAR-TAF: